Time;durP1;ratioP1;P1;durP2;ratioP2;P2;SDS_P1;SDS_P2;PMS_P1;PMS_P2;Temp;Humidity;BMP_temperature;BMP_pressure;BME280_temperature;BME280_humidity;BME280_pressure;Samples;Min_cycle;Max_cycle;Signal;HPM_P1;HPM_P2
2023/03/02 00:00:12;;;;;;;;;;;7.30;77.10;;;;;;4926718;28;83432;-38
2023/03/02 00:02:39;;;;;;;;;;;7.30;77.10;;;;;;4926602;28;81955;-37
2023/03/02 00:05:07;;;;;;;;;;;7.30;77.20;;;;;;4928895;28;83593;-37
2023/03/02 00:07:33;;;;;;;;;;;7.30;77.10;;;;;;4926382;28;82125;-37
2023/03/02 00:09:58;;;;;;;;;;;7.30;77.20;;;;;;4926926;28;82665;-37
2023/03/02 00:12:27;;;;;;;;;;;7.30;77.10;;;;;;4926494;28;83668;-37
2023/03/02 00:14:53;;;;;;;;;;;7.30;77.10;;;;;;4926214;28;82101;-37
2023/03/02 00:17:26;;;;;;;;;;;7.30;77.20;;;;;;4925348;28;83915;-37
2023/03/02 00:19:52;;;;;;;;;;;7.30;77.10;;;;;;4926343;28;85163;-36
2023/03/02 00:22:18;;;;;;;;;;;7.20;77.10;;;;;;4926226;28;82317;-37
2023/03/02 00:24:43;;;;;;;;;;;7.30;77.00;;;;;;4926069;28;83904;-37
2023/03/02 00:27:09;;;;;;;;;;;7.30;77.20;;;;;;4928652;28;84251;-37
2023/03/02 00:29:34;;;;;;;;;;;7.20;77.20;;;;;;4926119;28;83843;-37
2023/03/02 00:32:02;;;;;;;;;;;7.20;77.10;;;;;;4925997;28;84412;-37
2023/03/02 00:34:31;;;;;;;;;;;7.20;77.10;;;;;;4926556;28;81046;-37
2023/03/02 00:36:57;;;;;;;;;;;7.20;77.10;;;;;;4925600;28;83151;-36
2023/03/02 00:39:22;;;;;;;;;;;7.20;77.10;;;;;;4925772;28;83582;-37
2023/03/02 00:41:48;;;;;;;;;;;7.30;77.00;;;;;;4925362;28;83046;-37
2023/03/02 00:44:16;;;;;;;;;;;7.20;77.10;;;;;;4925454;28;85940;-37
2023/03/02 00:46:42;;;;;;;;;;;7.20;77.20;;;;;;4925790;28;84236;-37
2023/03/02 00:49:07;;;;;;;;;;;7.20;77.20;;;;;;4928651;28;81999;-37
2023/03/02 00:51:33;;;;;;;;;;;7.20;77.20;;;;;;4925660;28;84287;-37
2023/03/02 00:54:01;;;;;;;;;;;7.20;77.20;;;;;;4925862;28;82000;-37
2023/03/02 00:56:27;;;;;;;;;;;7.20;77.20;;;;;;4926035;28;83934;-37
2023/03/02 00:58:53;;;;;;;;;;;7.20;77.10;;;;;;4926127;28;84045;-37
2023/03/02 01:01:18;;;;;;;;;;;7.20;77.10;;;;;;4925881;28;82128;-37
2023/03/02 01:03:44;;;;;;;;;;;7.20;77.00;;;;;;4925677;28;84242;-37
2023/03/02 01:06:17;;;;;;;;;;;7.20;77.10;;;;;;4924845;28;85500;-37
2023/03/02 01:08:42;;;;;;;;;;;7.20;77.20;;;;;;4925681;28;82105;-37
2023/03/02 01:11:15;;;;;;;;;;;7.20;77.20;;;;;;4928286;28;83859;-37
2023/03/02 01:13:41;;;;;;;;;;;7.20;77.30;;;;;;4925501;28;81867;-37
2023/03/02 01:16:06;;;;;;;;;;;7.20;77.00;;;;;;4925475;28;84059;-37
2023/03/02 01:18:33;;;;;;;;;;;7.20;77.00;;;;;;4925336;28;84495;-37
2023/03/02 01:21:10;;;;;;;;;;;7.20;77.10;;;;;;4925406;28;82225;-37
2023/03/02 01:23:36;;;;;;;;;;;7.10;77.20;;;;;;4926287;28;82254;-37
2023/03/02 01:26:01;;;;;;;;;;;7.10;77.40;;;;;;4925322;28;84681;-37
2023/03/02 01:28:27;;;;;;;;;;;7.10;77.20;;;;;;4924542;28;82213;-37
2023/03/02 01:30:53;;;;;;;;;;;7.10;77.30;;;;;;4927529;28;83379;-37
2023/03/02 01:33:18;;;;;;;;;;;7.10;77.30;;;;;;4925304;28;82171;-37
2023/03/02 01:35:45;;;;;;;;;;;7.10;77.20;;;;;;4925326;28;83834;-37
2023/03/02 01:38:10;;;;;;;;;;;7.10;77.30;;;;;;4925189;28;84285;-36
2023/03/02 01:40:36;;;;;;;;;;;7.10;77.30;;;;;;4925358;28;82165;-37
2023/03/02 01:43:03;;;;;;;;;;;7.10;77.20;;;;;;4925237;28;81959;-37
2023/03/02 01:45:47;;;;;;;;;;;7.10;77.10;;;;;;4925134;28;84332;-37
2023/03/02 01:48:15;;;;;;;;;;;7.10;77.20;;;;;;4925533;28;81409;-37
2023/03/02 01:50:41;;;;;;;;;;;7.10;77.10;;;;;;4925134;28;83720;-37
2023/03/02 01:53:06;;;;;;;;;;;7.10;77.10;;;;;;4927678;28;84739;-37
2023/03/02 01:55:33;;;;;;;;;;;7.10;77.10;;;;;;4924798;28;83986;-37
2023/03/02 01:57:59;;;;;;;;;;;7.10;77.20;;;;;;4924979;28;84691;-37
2023/03/02 02:00:30;;;;;;;;;;;7.10;77.20;;;;;;4925108;28;81823;-37
2023/03/02 02:03:08;;;;;;;;;;;7.10;77.10;;;;;;4925048;28;83890;-37
2023/03/02 02:05:35;;;;;;;;;;;7.10;77.20;;;;;;4925332;28;84520;-37
2023/03/02 02:08:01;;;;;;;;;;;7.00;77.20;;;;;;4925146;28;81667;-37
2023/03/02 02:10:27;;;;;;;;;;;7.00;77.20;;;;;;4924967;28;82791;-37
2023/03/02 02:12:52;;;;;;;;;;;7.10;77.20;;;;;;4925625;28;82316;-37
2023/03/02 02:15:18;;;;;;;;;;;7.00;77.30;;;;;;4927735;28;81944;-36
2023/03/02 02:17:43;;;;;;;;;;;7.10;77.20;;;;;;4924812;28;84338;-37
2023/03/02 02:20:27;;;;;;;;;;;7.10;77.20;;;;;;4924196;28;83480;-37
2023/03/02 02:22:56;;;;;;;;;;;7.00;77.30;;;;;;4924826;28;84562;-37
2023/03/02 02:25:38;;;;;;;;;;;7.00;77.20;;;;;;4924422;28;83480;-36
2023/03/02 02:28:08;;;;;;;;;;;7.00;77.20;;;;;;4924810;28;81875;-37
2023/03/02 02:30:35;;;;;;;;;;;7.00;77.30;;;;;;4925055;28;82239;-37
2023/03/02 02:33:01;;;;;;;;;;;7.00;77.10;;;;;;4924613;28;84555;-37
2023/03/02 02:35:27;;;;;;;;;;;7.00;77.10;;;;;;4924621;28;82074;-36
2023/03/02 02:37:55;;;;;;;;;;;7.00;77.30;;;;;;4927433;28;83816;-37
2023/03/02 02:40:39;;;;;;;;;;;7.00;77.20;;;;;;4923931;28;82172;-37
2023/03/02 02:43:05;;;;;;;;;;;7.00;77.30;;;;;;4924210;28;83599;-37
2023/03/02 02:45:30;;;;;;;;;;;7.00;77.30;;;;;;4923573;28;84629;-37
2023/03/02 02:47:56;;;;;;;;;;;7.00;77.20;;;;;;4924375;28;82221;-37
2023/03/02 02:50:24;;;;;;;;;;;7.00;77.10;;;;;;4924445;28;82830;-37
2023/03/02 02:52:55;;;;;;;;;;;7.00;77.30;;;;;;4924231;28;83039;-37
2023/03/02 02:55:22;;;;;;;;;;;7.00;77.30;;;;;;4924311;28;81975;-37
2023/03/02 02:57:48;;;;;;;;;;;7.00;77.30;;;;;;4924342;28;83846;-37
2023/03/02 03:00:17;;;;;;;;;;;6.90;77.20;;;;;;4926971;28;83915;-37
2023/03/02 03:02:44;;;;;;;;;;;7.00;77.30;;;;;;4924956;28;81443;-37
2023/03/02 03:05:13;;;;;;;;;;;6.90;77.20;;;;;;4923832;28;84366;-37
2023/03/02 03:07:39;;;;;;;;;;;6.90;77.20;;;;;;4923864;28;82232;-37
2023/03/02 03:10:34;;;;;;;;;;;7.00;77.40;;;;;;4923673;28;83582;-37
2023/03/02 03:13:00;;;;;;;;;;;6.90;77.40;;;;;;4935812;28;83696;-37
2023/03/02 03:15:26;;;;;;;;;;;7.00;77.30;;;;;;4924074;28;82111;-36
2023/03/02 03:17:58;;;;;;;;;;;6.90;77.30;;;;;;4924059;28;81922;-37
2023/03/02 03:20:24;;;;;;;;;;;6.90;77.20;;;;;;4923752;28;84403;-36
2023/03/02 03:22:52;;;;;;;;;;;6.90;77.20;;;;;;4926838;28;81849;-37
2023/03/02 03:25:18;;;;;;;;;;;6.90;77.20;;;;;;4923747;28;84654;-37
2023/03/02 03:27:44;;;;;;;;;;;6.90;77.30;;;;;;4924518;28;81143;-37
2023/03/02 03:30:10;;;;;;;;;;;6.90;77.30;;;;;;4923877;28;82639;-37
2023/03/02 03:32:36;;;;;;;;;;;6.90;77.30;;;;;;4923388;28;84729;-37
2023/03/02 03:35:02;;;;;;;;;;;6.90;77.20;;;;;;4923031;28;82882;-37
2023/03/02 03:37:27;;;;;;;;;;;6.90;77.30;;;;;;4923387;28;83656;-37
2023/03/02 03:39:53;;;;;;;;;;;6.90;77.30;;;;;;4923478;28;84478;-37
2023/03/02 03:42:19;;;;;;;;;;;6.90;77.40;;;;;;4926170;28;81963;-37
2023/03/02 03:44:44;;;;;;;;;;;6.90;77.40;;;;;;4923528;28;83055;-37
2023/03/02 03:47:10;;;;;;;;;;;6.90;77.40;;;;;;4923563;28;82043;-37
2023/03/02 03:49:35;;;;;;;;;;;6.80;77.40;;;;;;4923709;28;83138;-37
2023/03/02 03:52:02;;;;;;;;;;;6.80;77.50;;;;;;4925954;28;83593;-37
2023/03/02 03:54:28;;;;;;;;;;;6.80;77.40;;;;;;4926613;28;82061;-36
2023/03/02 03:56:53;;;;;;;;;;;6.90;77.40;;;;;;4926496;28;83839;-37
2023/03/02 03:59:23;;;;;;;;;;;6.80;77.30;;;;;;4925959;28;83920;-37
2023/03/02 04:01:52;;;;;;;;;;;6.90;77.40;;;;;;4926211;28;82172;-36
2023/03/02 04:04:23;;;;;;;;;;;6.80;77.30;;;;;;4929015;28;84106;-36
2023/03/02 04:06:49;;;;;;;;;;;6.80;77.40;;;;;;4926534;28;82012;-37
2023/03/02 04:09:18;;;;;;;;;;;6.80;77.50;;;;;;4926459;28;82926;-37
2023/03/02 04:11:45;;;;;;;;;;;6.80;77.30;;;;;;4926430;28;84535;-37
2023/03/02 04:14:11;;;;;;;;;;;6.80;77.30;;;;;;4926665;28;81962;-37
2023/03/02 04:16:37;;;;;;;;;;;6.80;77.30;;;;;;4926971;28;83895;-37
2023/03/02 04:19:08;;;;;;;;;;;6.80;77.30;;;;;;4926136;28;84706;-37
2023/03/02 04:21:37;;;;;;;;;;;6.80;77.30;;;;;;4926282;28;82027;-37
2023/03/02 04:24:03;;;;;;;;;;;6.80;77.20;;;;;;4925469;28;84531;-37
2023/03/02 04:26:28;;;;;;;;;;;6.80;77.30;;;;;;4928794;28;84205;-37
2023/03/02 04:28:54;;;;;;;;;;;6.80;77.50;;;;;;4926249;28;84048;-37
2023/03/02 04:31:19;;;;;;;;;;;6.80;77.40;;;;;;4926040;28;84486;-37
2023/03/02 04:33:45;;;;;;;;;;;6.80;77.30;;;;;;4926079;28;81941;-37
2023/03/02 04:36:10;;;;;;;;;;;6.80;77.30;;;;;;4925890;28;83988;-36
2023/03/02 04:38:36;;;;;;;;;;;6.80;77.40;;;;;;4925831;28;84446;-37
2023/03/02 04:41:01;;;;;;;;;;;6.80;77.30;;;;;;4926489;28;81611;-37
2023/03/02 04:43:27;;;;;;;;;;;6.80;77.40;;;;;;4925351;28;82572;-37
2023/03/02 04:45:53;;;;;;;;;;;6.80;77.40;;;;;;4925788;28;84392;-37
2023/03/02 04:48:18;;;;;;;;;;;6.80;77.40;;;;;;4928083;28;82971;-37
2023/03/02 04:50:44;;;;;;;;;;;6.80;77.40;;;;;;4926369;28;83154;-36
2023/03/02 04:53:10;;;;;;;;;;;6.70;77.30;;;;;;4926091;28;81947;-37
2023/03/02 04:55:36;;;;;;;;;;;6.70;77.40;;;;;;4926066;28;83873;-37
2023/03/02 04:58:02;;;;;;;;;;;6.80;77.40;;;;;;4925703;28;84855;-37
2023/03/02 05:00:27;;;;;;;;;;;6.80;77.40;;;;;;4925558;28;82109;-37
2023/03/02 05:02:53;;;;;;;;;;;6.80;77.30;;;;;;4926185;28;82475;-36
2023/03/02 05:05:21;;;;;;;;;;;6.70;77.30;;;;;;4926093;28;83917;-37
2023/03/02 05:07:46;;;;;;;;;;;6.70;77.30;;;;;;4925851;28;82025;-37
2023/03/02 05:10:12;;;;;;;;;;;6.70;77.40;;;;;;4928550;28;83123;-37
2023/03/02 05:12:56;;;;;;;;;;;6.70;77.40;;;;;;4925301;28;83048;-37
2023/03/02 05:15:31;;;;;;;;;;;6.70;77.30;;;;;;4925520;28;83802;-37
2023/03/02 05:17:57;;;;;;;;;;;6.80;77.40;;;;;;4925594;28;84338;-37
2023/03/02 05:20:30;;;;;;;;;;;6.70;77.30;;;;;;4925498;28;81966;-37
2023/03/02 05:22:57;;;;;;;;;;;6.70;77.40;;;;;;4925596;28;82981;-37
2023/03/02 05:25:23;;;;;;;;;;;6.70;77.40;;;;;;4925172;28;84417;-37
2023/03/02 05:27:49;;;;;;;;;;;6.70;77.40;;;;;;4925398;28;82131;-37
2023/03/02 05:30:15;;;;;;;;;;;6.60;77.50;;;;;;4928820;28;82304;-37
2023/03/02 05:32:41;;;;;;;;;;;6.60;77.50;;;;;;4925454;28;81899;-37
2023/03/02 05:35:06;;;;;;;;;;;6.70;77.40;;;;;;4925395;28;83090;-37
2023/03/02 05:37:32;;;;;;;;;;;6.70;77.40;;;;;;4924312;28;86434;-37
2023/03/02 05:39:57;;;;;;;;;;;6.70;77.30;;;;;;4925354;28;82018;-36
2023/03/02 05:42:23;;;;;;;;;;;6.70;77.30;;;;;;4924799;28;83927;-37
2023/03/02 05:44:48;;;;;;;;;;;6.70;77.40;;;;;;4925211;28;83113;-37
2023/03/02 05:47:14;;;;;;;;;;;6.70;77.40;;;;;;4925340;28;82109;-37
2023/03/02 05:49:39;;;;;;;;;;;6.70;77.40;;;;;;4925193;28;83799;-37
2023/03/02 05:52:05;;;;;;;;;;;6.60;77.40;;;;;;4927678;28;84474;-36
2023/03/02 05:54:31;;;;;;;;;;;6.70;77.40;;;;;;4926090;28;81522;-36
2023/03/02 05:56:57;;;;;;;;;;;6.70;77.40;;;;;;4924824;28;84924;-37
2023/03/02 05:59:22;;;;;;;;;;;6.60;77.20;;;;;;4925116;28;81951;-37
2023/03/02 06:01:48;;;;;;;;;;;6.60;77.30;;;;;;4924765;28;83922;-37
2023/03/02 06:04:14;;;;;;;;;;;6.60;77.30;;;;;;4925024;28;84271;-37
2023/03/02 06:06:39;;;;;;;;;;;6.60;77.30;;;;;;4924996;28;82108;-36
2023/03/02 06:09:05;;;;;;;;;;;6.60;77.40;;;;;;4924923;28;83672;-37
2023/03/02 06:11:30;;;;;;;;;;;6.70;77.40;;;;;;4924545;28;83573;-36
2023/03/02 06:13:56;;;;;;;;;;;6.60;77.20;;;;;;4927021;28;82569;-37
2023/03/02 06:16:21;;;;;;;;;;;6.60;77.30;;;;;;4924798;28;84628;-37
2023/03/02 06:18:47;;;;;;;;;;;6.70;77.30;;;;;;4925382;28;81769;-36
2023/03/02 06:21:12;;;;;;;;;;;6.60;77.40;;;;;;4925229;28;81943;-37
2023/03/02 06:23:38;;;;;;;;;;;6.60;77.30;;;;;;4924492;28;84741;-37
2023/03/02 06:26:10;;;;;;;;;;;6.70;77.30;;;;;;4924072;28;82978;-37
2023/03/02 06:28:36;;;;;;;;;;;6.70;77.30;;;;;;4924758;28;84815;-36
2023/03/02 06:31:01;;;;;;;;;;;6.60;77.30;;;;;;4924456;28;84560;-37
2023/03/02 06:33:27;;;;;;;;;;;6.60;77.30;;;;;;4924739;28;82082;-37
2023/03/02 06:35:52;;;;;;;;;;;6.70;77.30;;;;;;4927308;28;83876;-37
2023/03/02 06:38:18;;;;;;;;;;;6.60;77.30;;;;;;4924557;28;82087;-37
2023/03/02 06:40:43;;;;;;;;;;;6.60;77.30;;;;;;4924354;28;83921;-37
2023/03/02 06:43:09;;;;;;;;;;;6.60;77.40;;;;;;4924725;28;84303;-37
2023/03/02 06:45:34;;;;;;;;;;;6.60;77.30;;;;;;4924257;28;82085;-37
2023/03/02 06:48:00;;;;;;;;;;;6.60;77.30;;;;;;4924554;28;83196;-37
2023/03/02 06:50:26;;;;;;;;;;;6.60;77.30;;;;;;4923637;28;85325;-37
2023/03/02 06:52:52;;;;;;;;;;;6.60;77.30;;;;;;4924328;28;82058;-37
2023/03/02 06:55:17;;;;;;;;;;;6.60;77.30;;;;;;4924489;28;82527;-37
2023/03/02 06:57:43;;;;;;;;;;;6.60;77.40;;;;;;4926699;28;84484;-37
2023/03/02 07:00:15;;;;;;;;;;;6.60;77.50;;;;;;4924546;28;82616;-37
2023/03/02 07:02:41;;;;;;;;;;;6.60;77.40;;;;;;4924040;28;84359;-37
2023/03/02 07:05:07;;;;;;;;;;;6.60;77.40;;;;;;4924424;28;81974;-37
2023/03/02 07:07:32;;;;;;;;;;;6.60;77.30;;;;;;4925009;28;82409;-37
2023/03/02 07:09:58;;;;;;;;;;;6.60;77.40;;;;;;4924032;28;84398;-37
2023/03/02 07:12:23;;;;;;;;;;;6.60;77.40;;;;;;4924323;28;82094;-37
2023/03/02 07:14:49;;;;;;;;;;;6.60;77.40;;;;;;4923548;28;82997;-37
2023/03/02 07:17:14;;;;;;;;;;;6.60;77.40;;;;;;4923843;28;84704;-37
2023/03/02 07:19:40;;;;;;;;;;;6.60;77.40;;;;;;4926641;28;82282;-37
2023/03/02 07:22:05;;;;;;;;;;;6.60;77.50;;;;;;4923715;28;84513;-37
2023/03/02 07:24:31;;;;;;;;;;;6.60;77.40;;;;;;4923548;28;82188;-37
2023/03/02 07:26:56;;;;;;;;;;;6.50;77.50;;;;;;4926094;28;83837;-37
2023/03/02 07:29:22;;;;;;;;;;;6.50;77.50;;;;;;4926846;28;84401;-37
2023/03/02 07:31:47;;;;;;;;;;;6.50;77.60;;;;;;4927269;28;81092;-37
2023/03/02 07:34:14;;;;;;;;;;;6.50;77.50;;;;;;4926664;28;83120;-36
2023/03/02 07:36:39;;;;;;;;;;;6.50;77.60;;;;;;4926306;28;84197;-37
2023/03/02 07:39:05;;;;;;;;;;;6.50;77.60;;;;;;4928909;28;82901;-36
2023/03/02 07:41:31;;;;;;;;;;;6.50;77.60;;;;;;4926530;28;84510;-36
2023/03/02 07:43:56;;;;;;;;;;;6.50;77.70;;;;;;4926188;28;82105;-37
2023/03/02 07:46:21;;;;;;;;;;;6.50;77.70;;;;;;4926729;28;83779;-36
2023/03/02 07:48:47;;;;;;;;;;;6.50;77.70;;;;;;4926735;28;83165;-37
2023/03/02 07:51:12;;;;;;;;;;;6.50;77.90;;;;;;4926530;28;82107;-37
2023/03/02 07:53:38;;;;;;;;;;;6.50;77.90;;;;;;4926851;28;82429;-37
2023/03/02 07:56:08;;;;;;;;;;;6.50;77.70;;;;;;4926913;28;82326;-37
2023/03/02 07:58:33;;;;;;;;;;;6.50;77.80;;;;;;4926385;28;82114;-37
2023/03/02 08:00:59;;;;;;;;;;;6.50;77.80;;;;;;4929089;28;83822;-37
2023/03/02 08:03:25;;;;;;;;;;;6.50;77.80;;;;;;4925749;28;83024;-37
2023/03/02 08:05:50;;;;;;;;;;;6.50;77.80;;;;;;4926302;28;85122;-37
2023/03/02 08:08:15;;;;;;;;;;;6.50;77.90;;;;;;4926145;28;83619;-37
2023/03/02 08:10:41;;;;;;;;;;;6.50;78.00;;;;;;4926210;28;82119;-37
2023/03/02 08:13:07;;;;;;;;;;;6.50;78.00;;;;;;4926376;28;82833;-36
2023/03/02 08:15:32;;;;;;;;;;;6.50;77.90;;;;;;4926111;28;84360;-37
2023/03/02 08:17:58;;;;;;;;;;;6.40;78.00;;;;;;4926362;28;82485;-37
2023/03/02 08:20:23;;;;;;;;;;;6.40;77.80;;;;;;4926948;28;83926;-37
2023/03/02 08:22:50;;;;;;;;;;;6.40;77.90;;;;;;4928712;28;83963;-37
2023/03/02 08:25:16;;;;;;;;;;;6.40;78.00;;;;;;4925827;28;83943;-37
2023/03/02 08:27:42;;;;;;;;;;;6.50;78.00;;;;;;4925358;28;85651;-37
2023/03/02 08:30:09;;;;;;;;;;;6.50;78.00;;;;;;4926223;28;82074;-37
2023/03/02 08:32:35;;;;;;;;;;;6.50;78.00;;;;;;4926235;28;83883;-37
2023/03/02 08:35:00;;;;;;;;;;;6.40;78.00;;;;;;4926136;28;82089;-37
2023/03/02 08:37:26;;;;;;;;;;;6.50;78.00;;;;;;4925696;28;82180;-36
2023/03/02 08:39:51;;;;;;;;;;;6.50;77.90;;;;;;4925618;28;83797;-37
2023/03/02 08:42:17;;;;;;;;;;;6.50;78.10;;;;;;4925526;28;84577;-37
2023/03/02 08:44:42;;;;;;;;;;;6.50;78.10;;;;;;4928226;28;81211;-36
2023/03/02 08:47:08;;;;;;;;;;;6.50;78.00;;;;;;4925448;28;84145;-36
2023/03/02 08:49:33;;;;;;;;;;;6.50;78.10;;;;;;4925654;28;82093;-37
2023/03/02 08:51:59;;;;;;;;;;;6.50;78.10;;;;;;4925229;28;84124;-36
2023/03/02 08:54:25;;;;;;;;;;;6.50;78.10;;;;;;4925394;28;83768;-36
2023/03/02 08:56:51;;;;;;;;;;;6.50;78.30;;;;;;4925357;28;82074;-37
2023/03/02 08:59:17;;;;;;;;;;;6.50;78.20;;;;;;4925684;28;81983;-37
2023/03/02 09:01:42;;;;;;;;;;;6.50;78.10;;;;;;4925489;28;84376;-37
2023/03/02 09:04:08;;;;;;;;;;;6.50;78.10;;;;;;4925719;28;82081;-37
2023/03/02 09:06:35;;;;;;;;;;;6.50;78.10;;;;;;4928306;28;83739;-37
2023/03/02 09:09:01;;;;;;;;;;;6.50;78.20;;;;;;4926484;28;81385;-37
2023/03/02 09:11:27;;;;;;;;;;;6.50;78.10;;;;;;4925674;28;83065;-37
2023/03/02 09:13:53;;;;;;;;;;;6.50;78.30;;;;;;4925748;28;82156;-37
2023/03/02 09:16:19;;;;;;;;;;;6.50;78.10;;;;;;4924929;28;82926;-37
2023/03/02 09:18:45;;;;;;;;;;;6.50;78.10;;;;;;4925556;28;84876;-37
2023/03/02 09:21:10;;;;;;;;;;;6.50;78.20;;;;;;4925362;28;84386;-37
2023/03/02 09:23:36;;;;;;;;;;;6.50;78.30;;;;;;4925932;28;82131;-37
2023/03/02 09:26:02;;;;;;;;;;;6.50;78.30;;;;;;4925540;28;83761;-37
2023/03/02 09:28:27;;;;;;;;;;;6.50;78.30;;;;;;4928047;28;84212;-37
2023/03/02 09:30:55;;;;;;;;;;;6.50;78.90;;;;;;4925637;28;83169;-37
2023/03/02 09:33:21;;;;;;;;;;;6.50;78.30;;;;;;4925753;28;82696;-36
2023/03/02 09:35:47;;;;;;;;;;;6.50;78.30;;;;;;4925365;28;82116;-37
2023/03/02 09:38:17;;;;;;;;;;;6.50;78.30;;;;;;4925161;28;83905;-37
2023/03/02 09:40:48;;;;;;;;;;;6.50;78.30;;;;;;4924459;28;83850;-37
2023/03/02 09:43:27;;;;;;;;;;;6.50;78.50;;;;;;4925143;28;82163;-37
2023/03/02 09:46:01;;;;;;;;;;;6.50;78.50;;;;;;4925346;28;82959;-37
2023/03/02 09:48:30;;;;;;;;;;;6.50;78.50;;;;;;4926804;28;84746;-37
2023/03/02 09:51:02;;;;;;;;;;;6.50;78.40;;;;;;4925023;28;84109;-37
2023/03/02 09:53:35;;;;;;;;;;;6.50;78.50;;;;;;4925023;28;83709;-37
2023/03/02 09:56:01;;;;;;;;;;;6.50;78.60;;;;;;4925499;28;82036;-37
2023/03/02 09:58:34;;;;;;;;;;;6.50;78.50;;;;;;4925637;28;83861;-37
2023/03/02 10:01:01;;;;;;;;;;;6.50;78.50;;;;;;4925177;28;83490;-37
2023/03/02 10:03:33;;;;;;;;;;;6.50;79.00;;;;;;4924838;28;82030;-37
2023/03/02 10:05:59;;;;;;;;;;;6.50;78.50;;;;;;4924529;28;85668;-37
2023/03/02 10:08:25;;;;;;;;;;;6.50;78.40;;;;;;4924972;28;84978;-37
2023/03/02 10:10:57;;;;;;;;;;;6.50;78.50;;;;;;4927680;28;81942;-37
2023/03/02 10:13:39;;;;;;;;;;;6.50;78.50;;;;;;4924867;28;84436;-37
2023/03/02 10:16:11;;;;;;;;;;;6.50;78.60;;;;;;4924873;28;81933;-37
2023/03/02 10:18:52;;;;;;;;;;;6.40;78.70;;;;;;4925150;28;82416;-37
2023/03/02 10:21:23;;;;;;;;;;;6.50;78.70;;;;;;4924697;28;84947;-37
2023/03/02 10:23:52;;;;;;;;;;;6.50;78.80;;;;;;4925405;28;81355;-37
2023/03/02 10:26:38;;;;;;;;;;;6.50;78.80;;;;;;4924852;28;82797;-37
2023/03/02 10:29:03;;;;;;;;;;;6.50;78.70;;;;;;4924643;28;83421;-37
2023/03/02 10:31:30;;;;;;;;;;;6.50;78.70;;;;;;4924113;28;82857;-37
2023/03/02 10:33:56;;;;;;;;;;;6.50;78.70;;;;;;4927469;28;83157;-37
2023/03/02 10:36:23;;;;;;;;;;;6.50;78.80;;;;;;4924565;28;81867;-37
2023/03/02 10:38:49;;;;;;;;;;;6.50;78.90;;;;;;4924542;28;83879;-37
2023/03/02 10:41:19;;;;;;;;;;;6.50;78.80;;;;;;4924561;28;82810;-37
2023/03/02 10:43:47;;;;;;;;;;;6.50;78.70;;;;;;4924450;28;81937;-37
2023/03/02 10:46:13;;;;;;;;;;;6.50;78.70;;;;;;4924604;28;82882;-37
2023/03/02 10:48:50;;;;;;;;;;;6.50;78.90;;;;;;4924797;28;83672;-36
2023/03/02 10:51:22;;;;;;;;;;;6.50;78.80;;;;;;4924360;28;82163;-36
2023/03/02 10:53:47;;;;;;;;;;;6.50;78.90;;;;;;4924462;28;84142;-36
2023/03/02 10:56:17;;;;;;;;;;;6.50;78.80;;;;;;4926165;28;85363;-37
2023/03/02 10:58:43;;;;;;;;;;;6.50;78.80;;;;;;4924311;28;84928;-37
2023/03/02 11:01:15;;;;;;;;;;;6.50;79.00;;;;;;4926554;28;84903;-36
2023/03/02 11:03:41;;;;;;;;;;;6.50;79.00;;;;;;4927032;28;81834;-37
2023/03/02 11:06:15;;;;;;;;;;;6.50;79.10;;;;;;4927305;28;83962;-37
2023/03/02 11:08:40;;;;;;;;;;;6.40;79.00;;;;;;4927026;28;82951;-37
2023/03/02 11:11:18;;;;;;;;;;;6.40;79.10;;;;;;4927264;28;82154;-36
2023/03/02 11:13:43;;;;;;;;;;;6.50;79.00;;;;;;4927919;28;81811;-37
2023/03/02 11:16:18;;;;;;;;;;;6.50;79.00;;;;;;4927177;28;83988;-37
2023/03/02 11:18:47;;;;;;;;;;;6.40;79.00;;;;;;4929577;28;82149;-37
2023/03/02 11:21:12;;;;;;;;;;;6.50;79.00;;;;;;4926037;28;85420;-37
2023/03/02 11:23:41;;;;;;;;;;;6.50;79.00;;;;;;4927003;28;82097;-37
2023/03/02 11:26:13;;;;;;;;;;;6.50;79.00;;;;;;4927103;28;82940;-37
2023/03/02 11:29:05;;;;;;;;;;;6.40;79.00;;;;;;4927233;28;83082;-37
2023/03/02 11:31:37;;;;;;;;;;;6.40;79.20;;;;;;4929243;28;82072;-37
2023/03/02 11:34:02;;;;;;;;;;;6.40;79.30;;;;;;4926923;28;82199;-37
2023/03/02 11:36:48;;;;;;;;;;;6.40;79.20;;;;;;4926829;28;84462;-37
2023/03/02 11:39:16;;;;;;;;;;;6.40;79.10;;;;;;4927157;28;81458;-37
2023/03/02 11:41:42;;;;;;;;;;;6.40;79.20;;;;;;4929299;28;83640;-37
2023/03/02 11:44:18;;;;;;;;;;;6.40;79.10;;;;;;4925930;28;82020;-37
2023/03/02 11:46:47;;;;;;;;;;;6.40;79.30;;;;;;4926273;28;83415;-37
2023/03/02 11:49:33;;;;;;;;;;;6.40;79.40;;;;;;4926401;28;84476;-37
2023/03/02 11:51:59;;;;;;;;;;;6.40;79.60;;;;;;4926758;28;82081;-37
2023/03/02 11:54:43;;;;;;;;;;;6.40;79.60;;;;;;4926327;28;83845;-37
2023/03/02 11:57:18;;;;;;;;;;;6.40;79.60;;;;;;4926515;28;83508;-37
2023/03/02 11:59:43;;;;;;;;;;;6.40;79.60;;;;;;4926579;28;81993;-37
2023/03/02 12:02:11;;;;;;;;;;;6.40;79.50;;;;;;4929318;28;83121;-37
2023/03/02 12:04:37;;;;;;;;;;;6.40;79.50;;;;;;4926772;28;81382;-37
2023/03/02 12:07:15;;;;;;;;;;;6.40;79.30;;;;;;4926607;28;83347;-37
2023/03/02 12:09:41;;;;;;;;;;;6.40;79.20;;;;;;4926338;28;83415;-36
2023/03/02 12:12:22;;;;;;;;;;;6.40;79.40;;;;;;4925088;28;83085;-37
2023/03/02 12:14:47;;;;;;;;;;;6.40;79.30;;;;;;4926647;28;83299;-37
2023/03/02 12:17:18;;;;;;;;;;;6.40;79.60;;;;;;4926176;28;84453;-37
2023/03/02 12:19:44;;;;;;;;;;;6.40;79.70;;;;;;4925159;28;82080;-37
2023/03/02 12:22:11;;;;;;;;;;;6.40;79.60;;;;;;4926400;28;84060;-36
2023/03/02 12:24:37;;;;;;;;;;;6.40;79.60;;;;;;4928621;28;84327;-36
2023/03/02 12:27:06;;;;;;;;;;;6.40;79.70;;;;;;4926325;28;82884;-37
2023/03/02 12:29:42;;;;;;;;;;;6.40;79.70;;;;;;4926668;28;82113;-37
2023/03/02 12:32:24;;;;;;;;;;;6.40;79.90;;;;;;4925953;28;82151;-36
2023/03/02 12:34:52;;;;;;;;;;;6.40;79.70;;;;;;4926395;28;82320;-37
2023/03/02 12:37:23;;;;;;;;;;;6.40;79.90;;;;;;4925072;28;84621;-37
2023/03/02 12:39:48;;;;;;;;;;;6.30;79.90;;;;;;4926034;28;81825;-37
2023/03/02 12:42:17;;;;;;;;;;;6.30;79.80;;;;;;4926141;28;83675;-36
2023/03/02 12:44:54;;;;;;;;;;;6.40;79.80;;;;;;4925686;28;84253;-37
2023/03/02 12:47:25;;;;;;;;;;;6.40;79.80;;;;;;4928722;28;82254;-36
2023/03/02 12:50:18;;;;;;;;;;;6.40;79.90;;;;;;4925742;28;84014;-37
2023/03/02 12:52:43;;;;;;;;;;;6.40;79.80;;;;;;4927651;28;82063;-37
2023/03/02 12:55:16;;;;;;;;;;;6.40;79.80;;;;;;4926120;28;84071;-38
2023/03/02 12:57:52;;;;;;;;;;;6.40;79.90;;;;;;4925909;28;84718;-37
2023/03/02 13:00:19;;;;;;;;;;;6.40;79.90;;;;;;4925914;28;81964;-37
2023/03/02 13:02:47;;;;;;;;;;;6.40;79.80;;;;;;4925374;28;83690;-37
2023/03/02 13:05:17;;;;;;;;;;;6.40;80.00;;;;;;4925644;28;83672;-37
2023/03/02 13:07:45;;;;;;;;;;;6.30;80.00;;;;;;4925816;28;82086;-37
2023/03/02 13:10:19;;;;;;;;;;;6.40;79.60;;;;;;4928218;28;84524;-37
2023/03/02 13:12:45;;;;;;;;;;;6.40;80.00;;;;;;4926001;28;82104;-37
2023/03/02 13:15:13;;;;;;;;;;;6.40;79.90;;;;;;4925773;28;83929;-37
2023/03/02 13:17:39;;;;;;;;;;;6.30;80.10;;;;;;4925503;28;84132;-37
2023/03/02 13:20:05;;;;;;;;;;;6.40;80.40;;;;;;4925933;28;81367;-37
2023/03/02 13:22:30;;;;;;;;;;;6.40;79.80;;;;;;4925239;28;82962;-37
2023/03/02 13:24:59;;;;;;;;;;;6.50;79.80;;;;;;4924295;28;84342;-37
2023/03/02 13:27:25;;;;;;;;;;;6.50;79.60;;;;;;4925032;28;83026;-37
2023/03/02 13:29:51;;;;;;;;;;;6.40;79.70;;;;;;4925376;28;84681;-37
2023/03/02 13:32:17;;;;;;;;;;;6.50;79.90;;;;;;4928124;28;84132;-37
2023/03/02 13:34:48;;;;;;;;;;;6.50;79.70;;;;;;4925321;28;83872;-37
2023/03/02 13:37:32;;;;;;;;;;;6.50;79.80;;;;;;4925020;28;84386;-37
2023/03/02 13:39:59;;;;;;;;;;;6.50;79.90;;;;;;4925352;28;82556;-36
2023/03/02 13:42:26;;;;;;;;;;;6.40;79.70;;;;;;4925199;28;83987;-37
2023/03/02 13:44:51;;;;;;;;;;;6.40;79.80;;;;;;4925527;28;82837;-37
2023/03/02 13:47:22;;;;;;;;;;;6.50;79.80;;;;;;4925184;28;82489;-37
2023/03/02 13:49:47;;;;;;;;;;;6.40;80.40;;;;;;4925412;28;83782;-36
2023/03/02 13:52:26;;;;;;;;;;;6.40;79.90;;;;;;4924430;28;85980;-36
2023/03/02 13:54:52;;;;;;;;;;;6.40;80.20;;;;;;4927752;28;81991;-37
2023/03/02 13:57:21;;;;;;;;;;;6.40;79.80;;;;;;4925189;28;84306;-37
2023/03/02 13:59:47;;;;;;;;;;;6.40;79.80;;;;;;4925076;28;82120;-37
2023/03/02 14:02:23;;;;;;;;;;;6.40;80.20;;;;;;4925357;28;83775;-37
2023/03/02 14:04:49;;;;;;;;;;;6.40;79.90;;;;;;4925032;28;84314;-37
2023/03/02 14:07:16;;;;;;;;;;;6.50;79.80;;;;;;4925022;28;82058;-36
2023/03/02 14:09:42;;;;;;;;;;;6.50;79.70;;;;;;4925482;28;83738;-36
2023/03/02 14:12:08;;;;;;;;;;;6.50;79.60;;;;;;4924821;28;84288;-37
2023/03/02 14:14:36;;;;;;;;;;;6.50;79.70;;;;;;4927620;28;81921;-37
2023/03/02 14:17:02;;;;;;;;;;;6.50;79.40;;;;;;4924211;28;83086;-37
2023/03/02 14:19:27;;;;;;;;;;;6.50;79.80;;;;;;4925175;28;82033;-36
2023/03/02 14:21:52;;;;;;;;;;;6.50;79.90;;;;;;4924890;28;83028;-37
2023/03/02 14:24:18;;;;;;;;;;;6.50;79.80;;;;;;4924858;28;82532;-37
2023/03/02 14:26:46;;;;;;;;;;;6.50;79.80;;;;;;4925003;28;82100;-37
2023/03/02 14:29:11;;;;;;;;;;;6.50;79.70;;;;;;4924578;28;83959;-37
2023/03/02 14:31:36;;;;;;;;;;;6.50;79.70;;;;;;4924655;28;83547;-36
2023/03/02 14:34:02;;;;;;;;;;;6.50;80.10;;;;;;4925251;28;81350;-36